Latest Weather Observations for Mullion

IDN60801

Issued at 2:12 am EDT Saturday 29 February 2020 (issued every 10 minutes, with the page automatically refreshed every 10 minutes)

About weather observations | Map of weather stations | Latest weather observations for NSW | Other Formats
Station Details ID: 250070 Name: MULLION (PCS) Lat: -35.11 Lon: 148.85 Height: 750.0 m

Portable automatic weather stations (PAWS) are operated by other organisations, such as Fire and Emergency Services, and are included here by agreement. Portable stations may be deployed to a location for a short period and their location may be subject to change without notice. Wind observations from these stations are provided from heights of either three (3) or ten (10) metres above ground level (AGL).

Data from the previous 72 hours. | See also: Recent months for locations in New South Wales
Date/Time
EDT
Temp
°C
App
Temp
°C
Dew
Point
°C
Rel
Hum
%
Delta-T
°C
Wind Press
QNH
hPa
Press
MSL
hPa
Rain since
9am
mm
Dir  Spd
km/h
Gust
km/h
Spd
kts
Gust
kts
29/02:00am 14.5 9.2 11.2 80 1.8 SE 30 32 16 17 1018.5 - 0.0
29/01:50am 14.5 9.2 11.2 80 1.8 ESE 30 32 16 17 1018.7 - 0.0
29/01:40am 14.6 9.3 11.2 80 1.9 ESE 30 33 16 18 1018.7 - 0.0
29/01:30am 14.7 9.0 11.2 79 1.9 SE 32 33 17 18 1018.6 - 0.0
29/01:20am 14.7 9.0 11.2 79 1.9 SE 32 33 17 18 1019.0 - 0.0
29/01:10am 14.7 8.8 11.2 79 1.9 SE 33 35 18 19 1018.9 - 0.0
29/01:00am 14.7 8.4 11.2 79 1.9 SE 35 37 19 20 1018.9 - 0.0
29/12:50am 14.7 8.8 11.2 79 1.9 ESE 33 35 18 19 1018.6 - 0.0
29/12:40am 14.8 8.9 11.2 79 2.0 SE 33 35 18 19 1018.5 - 0.0
29/12:30am 14.8 8.9 11.1 78 2.0 ESE 33 37 18 20 1018.5 - 0.0
29/12:20am 14.8 8.9 11.2 79 2.0 SE 33 35 18 19 1018.6 - 0.0
29/12:10am 14.8 9.1 11.2 79 2.0 SE 32 33 17 18 1018.6 - 0.0
29/12:00am 14.9 9.0 11.2 78 2.1 SE 33 37 18 20 1018.6 - 0.0
 
Date/Time
EDT
Temp
°C
App
Temp
°C
Dew
Point
°C
Rel
Hum
%
Delta-T
°C
Wind Press
QNH
hPa
Press
MSL
hPa
Rain since
9am
mm
Dir  Spd
km/h
Gust
km/h
Spd
kts
Gust
kts
28/11:50pm 14.9 9.0 11.2 78 2.1 SE 33 37 18 20 1018.6 - 0.0
28/11:40pm 15.0 9.1 11.2 78 2.1 ESE 33 35 18 19 1018.5 - 0.0
28/11:30pm 15.0 9.1 11.3 78 2.1 ESE 33 35 18 19 1018.4 - 0.0
28/11:20pm 15.1 9.2 11.3 78 2.1 SE 33 35 18 19 1018.5 - 0.0
28/11:10pm 15.1 9.3 11.4 78 2.1 SE 33 37 18 20 1018.5 - 0.0
28/11:00pm 15.2 9.4 11.4 78 2.1 ESE 33 37 18 20 1018.6 - 0.0
28/10:50pm 15.3 9.1 11.4 77 2.2 ESE 35 37 19 20 1018.3 - 0.0
28/10:40pm 15.3 8.7 11.5 78 2.1 ESE 37 41 20 22 1018.4 - 0.0
28/10:30pm 15.4 8.9 11.6 78 2.1 ESE 37 43 20 23 1018.0 - 0.0
28/10:20pm 15.6 9.5 11.7 77 2.2 ESE 35 41 19 22 1017.9 - 0.0
28/10:10pm 15.6 7.9 11.6 77 2.2 ESE 43 48 23 26 1018.0 - 0.0
28/10:00pm 15.8 9.3 11.7 76 2.3 ESE 37 46 20 25 1017.6 - 0.0
28/09:50pm 15.9 8.6 11.6 75 2.4 ESE 41 48 22 26 1017.4 - 0.0
28/09:40pm 16.0 7.8 11.6 75 2.5 ESE 46 52 25 28 1017.1 - 0.0
28/09:30pm 16.2 8.3 11.6 74 2.6 ESE 44 52 24 28 1017.0 - 0.0
28/09:20pm 16.2 8.4 11.7 74 2.5 ESE 44 50 24 27 1016.9 - 0.0
28/09:10pm 16.5 9.2 11.7 73 2.7 ESE 41 46 22 25 1016.9 - 0.0
28/09:00pm 16.7 9.1 11.7 72 2.8 ESE 43 52 23 28 1016.0 - 0.0
28/08:50pm 17.3 11.6 11.9 70 3.1 ESE 33 37 18 20 1016.6 - 0.0
28/08:40pm 17.9 12.3 12.0 68 3.4 ESE 33 35 18 19 1016.3 - 0.0
28/08:30pm 18.8 13.1 11.9 64 4.0 E 33 39 18 21 1016.0 - 0.0
28/08:20pm 19.7 14.1 11.5 59 4.7 E 32 35 17 19 1015.6 - 0.0
28/08:10pm 22.0 17.8 5.8 35 8.4 N 17 20 9 11 1015.7 - 0.0
28/08:00pm 22.3 17.4 5.3 33 8.8 N 20 22 11 12 1015.1 - 0.0
28/07:50pm 22.5 17.2 5.2 32 8.9 N 22 22 12 12 1014.9 - 0.0
28/07:40pm 22.9 17.6 5.1 31 9.2 N 22 24 12 13 1014.7 - 0.0
28/07:30pm 23.4 18.4 4.8 30 9.6 N 20 24 11 13 1014.5 - 0.0
28/07:20pm 23.9 20.3 5.1 29 9.8 NNW 13 17 7 9 1014.6 - 0.0
28/07:10pm 24.2 20.6 5.2 29 9.9 WNW 13 15 7 8 1014.6 - 0.0
28/07:00pm 24.4 20.9 5.3 29 10.0 WNW 13 17 7 9 1014.5 - 0.0
28/06:50pm 24.7 22.3 5.2 28 10.2 NNW 7 13 4 7 1014.4 - 0.0
28/06:40pm 24.6 20.7 5.3 28 10.1 NW 15 19 8 10 1014.2 - 0.0
28/06:30pm 24.9 21.0 5.3 28 10.3 NW 15 17 8 9 1014.1 - 0.0
28/06:20pm 25.1 21.3 5.6 28 10.3 NNW 15 19 8 10 1014.0 - 0.0
28/06:10pm 25.1 21.2 5.3 28 10.4 NW 15 19 8 10 1014.0 - 0.0
28/06:00pm 24.9 21.3 5.2 28 10.3 N 13 17 7 9 1013.7 - 0.0
28/05:50pm 25.0 21.0 5.0 27 10.5 NW 15 19 8 10 1013.7 - 0.0
28/05:40pm 25.0 21.5 5.4 28 10.3 NNW 13 20 7 11 1013.6 - 0.0
28/05:30pm 25.1 21.5 5.0 27 10.5 NNW 13 19 7 10 1013.6 - 0.0
28/05:20pm 25.0 20.1 5.3 28 10.4 NNW 20 24 11 13 1013.5 - 0.0
28/05:10pm 24.9 21.8 5.6 29 10.2 N 11 17 6 9 1013.3 - 0.0
28/05:00pm 24.7 20.0 5.3 28 10.2 N 19 22 10 12 1013.4 - 0.0
28/04:50pm 24.4 19.5 5.0 28 10.1 N 20 24 11 13 1013.2 - 0.0
28/04:40pm 24.7 20.0 5.2 28 10.2 N 19 22 10 12 1013.3 - 0.0
28/04:30pm 25.2 20.6 5.8 28 10.3 NNW 19 24 10 13 1013.3 - 0.0
28/04:20pm 25.0 20.2 4.8 27 10.5 N 19 26 10 14 1013.2 - 0.0
28/04:10pm 24.6 18.8 4.6 27 10.4 N 24 28 13 15 1012.9 - 0.0
28/04:00pm 24.4 18.3 4.8 28 10.2 N 26 30 14 16 1013.1 - 0.0
28/03:50pm 24.8 19.5 4.9 27 10.4 NNE 22 30 12 16 1013.1 - 0.0
28/03:40pm 24.4 18.7 4.9 28 10.1 N 24 30 13 16 1013.2 - 0.0
28/03:30pm 24.5 19.1 4.6 27 10.3 N 22 30 12 16 1013.1 - 0.0
28/03:20pm 24.2 19.2 4.6 28 10.1 N 20 26 11 14 1013.3 - 0.0
28/03:10pm 24.4 19.5 5.0 28 10.1 N 20 26 11 14 1013.5 - 0.0
28/03:00pm 24.1 17.9 4.5 28 10.1 N 26 30 14 16 1013.4 - 0.0
28/02:50pm 23.9 18.1 4.2 28 10.1 N 24 30 13 16 1013.6 - 0.0
28/02:40pm 24.4 18.5 4.1 26 10.4 N 24 28 13 15 1013.6 - 0.0
28/02:30pm 23.7 17.6 4.6 29 9.8 N 26 32 14 17 1013.8 - 0.0
28/02:20pm 23.6 17.4 4.1 28 10.0 N 26 28 14 15 1013.7 - 0.0
28/02:10pm 24.0 18.2 4.3 28 10.1 N 24 28 13 15 1013.7 - 0.0
28/02:00pm 23.7 17.9 4.5 28 9.9 N 24 28 13 15 1013.8 - 0.0
28/01:50pm 23.7 18.0 4.9 29 9.7 N 24 28 13 15 1014.0 - 0.0
28/01:40pm 23.2 17.8 4.4 29 9.6 N 22 30 12 16 1014.0 - 0.0
28/01:30pm 23.0 18.6 4.5 30 9.5 N 17 19 9 10 1014.3 - 0.0
28/01:20pm 22.9 17.9 4.5 30 9.4 NNW 20 24 11 13 1014.2 - 0.0
28/01:10pm 22.5 17.6 5.0 32 9.0 NNW 20 24 11 13 1014.4 - 0.0
28/01:00pm 22.3 17.6 5.1 32 8.9 N 19 22 10 12 1014.4 - 0.0
28/12:50pm 22.0 17.0 4.6 32 8.9 N 20 24 11 13 1014.5 - 0.0
28/12:40pm 22.2 17.4 4.8 32 8.9 N 19 22 10 12 1014.4 - 0.0
28/12:30pm 21.3 16.4 4.3 32 8.6 NNW 19 22 10 12 1014.6 - 0.0
28/12:20pm 21.2 17.0 3.7 31 8.7 NNW 15 19 8 10 1014.8 - 0.0
28/12:10pm 21.2 17.3 3.6 31 8.8 NNW 13 19 7 10 1015.1 - 0.0
28/12:00pm 20.7 16.8 3.4 32 8.6 N 13 17 7 9 1015.2 - 0.0
28/11:50am 20.3 16.3 3.0 32 8.5 N 13 19 7 10 1015.1 - 0.0
28/11:40am 20.1 17.3 3.3 33 8.3 NW 7 13 4 7 1015.2 - 0.0
28/11:30am 20.2 17.1 3.8 34 8.1 N 9 9 5 5 1015.2 - 0.0
28/11:20am 20.5 17.4 3.4 32 8.4 N 9 15 5 8 1015.1 - 0.0
28/11:10am 19.4 16.3 3.5 35 7.8 NNE 9 13 5 7 1015.0 - 0.0
28/11:00am 19.4 16.6 3.2 34 7.9 N 7 13 4 7 1015.0 - 0.0
28/10:50am 18.7 16.1 4.1 38 7.2 ENE 7 11 4 6 1015.1 - 0.0
28/10:40am 18.2 15.4 3.1 36 7.3 NE 7 11 4 6 1015.0 - 0.0
28/10:30am 17.8 14.7 3.4 38 7.0 ENE 9 13 5 7 1015.0 - 0.0
28/10:20am 17.4 14.6 3.1 38 6.9 E 7 9 4 5 1015.1 - 0.0
28/10:10am 17.1 13.9 3.0 39 6.7 E 9 11 5 6 1014.9 - 0.0
28/10:00am 16.4 13.6 3.4 42 6.2 E 7 13 4 7 1014.9 - 0.0
28/09:50am 16.6 13.0 2.8 39 6.5 ENE 11 15 6 8 1014.8 - 0.0
28/09:40am 16.8 13.5 2.4 38 6.8 ENE 9 13 5 7 1014.6 - 0.0
28/09:30am 15.1 13.0 2.0 41 6.0 N 2 6 1 3 1014.6 - 0.0
28/09:20am 13.6 10.7 2.4 46 5.1 WNW 7 11 4 6 1014.4 - 0.0
28/09:10am 13.1 9.4 2.2 47 5.0 WNW 11 13 6 7 1014.2 - 0.0
28/09:00am 13.1 9.0 2.4 48 4.9 WNW 13 13 7 7 1014.1 - 0.0
28/08:50am 13.3 9.9 1.9 46 5.2 WNW 9 11 5 6 1013.9 - 0.0
28/08:40am 13.2 9.8 2.0 46 5.1 W 9 11 5 6 1013.8 - 0.0
28/08:30am 13.0 8.5 1.9 47 5.0 WSW 15 19 8 10 1013.8 - 0.0
28/08:20am 12.7 7.3 1.5 46 5.0 W 19 20 10 11 1013.7 - 0.0
28/08:10am 11.9 6.3 1.1 47 4.7 W 20 22 11 12 1013.6 - 0.0
28/08:00am 11.3 5.9 1.1 49 4.5 W 19 20 10 11 1013.6 - 0.0
28/07:50am 11.3 6.2 0.9 48 4.5 W 17 19 9 10 1013.4 - 0.0
28/07:40am 11.2 5.7 0.9 49 4.5 W 19 20 10 11 1013.3 - 0.0
28/07:30am 11.6 6.5 0.9 48 4.7 W 17 20 9 11 1013.2 - 0.0
28/07:20am 12.1 7.0 1.0 46 4.9 W 17 19 9 10 1013.1 - 0.0
28/07:10am 12.1 7.0 0.7 45 5.0 W 17 22 9 12 1013.0 - 0.0
28/07:00am 11.9 6.9 1.2 48 4.7 W 17 20 9 11 1012.8 - 0.0
28/06:50am 12.1 7.1 1.1 47 4.8 W 17 24 9 13 1012.8 - 0.0
28/06:40am 11.5 5.9 0.9 48 4.6 W 20 22 11 12 1012.6 - 0.0
28/06:30am 10.6 4.9 0.5 49 4.3 WNW 20 24 11 13 1012.5 - 0.0
28/06:20am 9.5 4.3 0.2 52 3.9 WNW 17 19 9 10 1012.3 - 0.0
28/06:10am 10.1 4.5 0.2 50 4.2 WNW 19 20 10 11 1012.0 - 0.0
28/06:00am 10.6 5.1 0.4 49 4.4 WNW 19 20 10 11 1012.1 - 0.0
28/05:50am 10.8 5.3 0.4 48 4.5 NW 19 19 10 10 1012.1 - 0.0
28/05:40am 11.7 6.2 0.5 46 4.8 NW 19 22 10 12 1012.0 - 0.0
28/05:30am 12.2 6.7 0.8 45 5.0 NNW 19 20 10 11 1011.7 - 0.0
28/05:20am 12.3 7.2 0.6 44 5.1 NNW 17 19 9 10 1011.9 - 0.0
28/05:10am 12.1 6.9 0.3 44 5.1 NNW 17 19 9 10 1012.0 - 0.0
28/05:00am 11.7 6.9 0.5 46 4.8 NNW 15 19 8 10 1011.9 - 0.0
28/04:50am 12.1 6.9 0.0 43 5.2 NW 17 19 9 10 1012.1 - 0.0
28/04:40am 11.9 6.7 0.0 44 5.1 NW 17 17 9 9 1012.1 - 0.0
28/04:30am 11.8 7.0 0.0 44 5.1 NNW 15 17 8 9 1012.0 - 0.0
28/04:20am 11.9 7.4 0.0 44 5.1 NNW 13 17 7 9 1012.1 - 0.0
28/04:10am 12.6 7.0 0.1 42 5.4 NW 19 19 10 10 1012.0 - 0.0
28/04:00am 12.6 7.4 0.0 42 5.4 NW 17 19 9 10 1012.0 - 0.0
28/03:50am 12.8 7.6 0.0 41 5.5 NW 17 17 9 9 1012.4 - 0.0
28/03:40am 13.1 7.9 0.0 40 5.7 NW 17 17 9 9 1012.2 - 0.0
28/03:30am 13.2 8.4 0.1 40 5.7 NW 15 17 8 9 1012.5 - 0.0
28/03:20am 13.2 8.0 -0.1 40 5.8 NW 17 17 9 9 1012.5 - 0.0
28/03:10am 13.3 8.1 -0.1 39 5.8 NNW 17 19 9 10 1012.2 - 0.0
28/03:00am 13.4 7.8 -0.3 39 5.9 NW 19 19 10 10 1012.3 - 0.0
28/02:50am 13.5 8.2 -0.7 37 6.1 NW 17 19 9 10 1012.2 - 0.0
28/02:40am 13.5 8.5 -1.0 36 6.2 NW 15 17 8 9 1012.4 - 0.0
28/02:30am 13.5 8.5 -1.4 35 6.3 NW 15 15 8 8 1012.4 - 0.0
28/02:20am 13.5 8.5 -1.5 35 6.3 NW 15 17 8 9 1012.4 - 0.0
28/02:10am 13.5 8.4 -1.6 35 6.3 NW 15 17 8 9 1012.3 - 0.0
28/02:00am 13.6 8.1 -1.8 34 6.5 WNW 17 19 9 10 1012.4 - 0.0
28/01:50am 13.8 8.3 -2.0 33 6.6 NW 17 20 9 11 1012.3 - 0.0
28/01:40am 13.4 7.5 -2.4 33 6.5 WNW 19 20 10 11 1012.3 - 0.0
28/01:30am 13.5 8.0 -2.3 33 6.5 NW 17 19 9 10 1012.3 - 0.0
28/01:20am 14.0 7.5 -2.3 32 6.8 NNW 22 24 12 13 1011.6 - 0.0
28/01:10am 14.2 8.2 -2.7 31 7.0 N 19 20 10 11 1011.7 - 0.0
28/01:00am 14.5 8.9 -2.8 30 7.2 NNW 17 17 9 9 1012.2 - 0.0
28/12:50am 14.9 10.1 -2.9 29 7.4 NNW 13 17 7 9 1012.5 - 0.0
28/12:40am 15.2 11.5 -3.1 28 7.6 NNW 7 11 4 6 1012.5 - 0.0
28/12:30am 15.5 11.4 -3.1 27 7.7 WNW 9 11 5 6 1012.5 - 0.0
28/12:20am 15.7 11.6 -3.4 26 7.9 WNW 9 13 5 7 1012.7 - 0.0
28/12:10am 15.6 11.8 -3.5 26 7.9 WNW 7 9 4 5 1012.8 - 0.0
28/12:00am 15.9 12.3 -3.7 26 8.1 W 6 11 3 6 1012.8 - 0.0
 
Date/Time
EDT
Temp
°C
App
Temp
°C
Dew
Point
°C
Rel
Hum
%
Delta-T
°C
Wind Press
QNH
hPa
Press
MSL
hPa
Rain since
9am
mm
Dir  Spd
km/h
Gust
km/h
Spd
kts
Gust
kts
27/11:50pm 15.9 11.7 -4.0 25 8.1 NW 9 13 5 7 1012.9 - 0.0
27/11:40pm 15.9 11.7 -4.0 25 8.1 NNW 9 11 5 6 1012.7 - 0.0
27/11:30pm 16.1 11.9 -4.2 24 8.3 NNW 9 13 5 7 1012.7 - 0.0
27/11:20pm 16.2 11.6 -4.4 24 8.4 NNW 11 15 6 8 1012.7 - 0.0
27/11:10pm 16.4 11.4 -4.5 23 8.5 NNW 13 20 7 11 1012.7 - 0.0
27/11:00pm 16.6 11.9 -4.9 22 8.7 N 11 19 6 10 1012.7 - 0.0
27/10:50pm 16.5 11.1 -4.7 23 8.6 N 15 20 8 11 1012.6 - 0.0
27/10:40pm 16.8 11.8 -4.6 23 8.7 N 13 19 7 10 1012.5 - 0.0
27/10:30pm 16.9 11.5 -4.6 22 8.8 NNW 15 22 8 12 1012.4 - 0.0
27/10:20pm 17.0 11.2 -4.6 22 8.8 NNW 17 19 9 10 1012.3 - 0.0
27/10:10pm 16.9 11.5 -4.3 23 8.7 NNW 15 19 8 10 1012.2 - 0.0
27/10:00pm 17.0 12.0 -4.1 23 8.7 NNW 13 19 7 10 1012.1 - 0.0
27/09:50pm 17.3 11.6 -4.1 23 8.8 NW 17 20 9 11 1012.1 - 0.0
27/09:40pm 17.4 11.6 -4.2 22 8.9 NNW 17 20 9 11 1011.9 - 0.0
27/09:30pm 17.5 11.8 -4.1 22 8.9 NW 17 24 9 13 1011.7 - 0.0
27/09:20pm 17.9 10.5 -3.9 22 9.1 NW 26 35 14 19 1011.5 - 0.0
27/09:10pm 18.0 11.0 -3.9 22 9.2 WNW 24 30 13 16 1011.4 - 0.0
27/09:00pm 18.2 10.7 -4.1 21 9.3 WNW 26 33 14 18 1011.3 - 0.0
27/08:50pm 18.3 11.3 -3.9 22 9.3 WNW 24 30 13 16 1011.1 - 0.0
27/08:40pm 18.4 11.7 -3.8 22 9.3 WNW 22 35 12 19 1010.9 - 0.0
27/08:30pm 18.5 12.2 -4.0 21 9.4 WNW 20 26 11 14 1011.0 - 0.0
27/08:20pm 18.7 11.7 -3.9 21 9.5 WNW 24 35 13 19 1010.7 - 0.0
27/08:10pm 19.0 10.4 -3.9 21 9.7 W 32 37 17 20 1010.5 - 0.0
27/08:00pm 19.1 10.9 -4.2 20 9.8 W 30 35 16 19 1010.5 - 0.0
27/07:50pm 19.4 9.8 -4.2 20 9.9 W 37 43 20 23 1010.5 - 0.0
27/07:40pm 19.7 10.8 -4.9 18 10.2 W 33 41 18 22 1010.4 - 0.0
27/07:30pm 20.1 10.8 -5.5 17 10.6 W 35 39 19 21 1010.6 - 0.0
27/07:20pm 20.5 12.1 -5.6 17 10.8 W 30 37 16 20 1010.4 - 0.0
27/07:10pm 20.8 11.8 -5.9 16 11.0 W 33 37 18 20 1010.2 - 0.0
27/07:00pm 21.1 13.1 -6.0 15 11.2 W 28 33 15 18 1010.4 - 0.0
27/06:50pm 21.4 12.9 -6.7 14 11.5 W 30 37 16 20 1010.2 - 0.0
27/06:40pm 21.6 12.8 -6.5 14 11.5 W 32 33 17 18 1010.1 - 0.0
27/06:30pm 21.6 11.8 -6.7 14 11.6 WNW 37 43 20 23 1009.8 - 0.0
27/06:20pm 21.9 13.0 -7.1 13 11.8 WNW 32 35 17 19 1009.9 - 0.0
27/06:10pm 21.8 12.0 -6.5 14 11.6 W 37 44 20 24 1009.8 - 0.0
27/06:00pm 22.2 13.2 -6.6 14 11.9 W 33 39 18 21 1009.8 - 0.0
27/05:50pm 22.2 12.8 -6.9 13 11.9 W 35 39 19 21 1009.6 - 0.0
27/05:40pm 22.3 13.9 -6.1 14 11.8 W 30 37 16 20 1009.4 - 0.0
27/05:30pm 22.2 13.3 -5.5 15 11.7 W 33 35 18 19 1009.5 - 0.0
27/05:20pm 22.1 12.8 -5.5 15 11.6 W 35 43 19 23 1009.4 - 0.0
27/05:10pm 22.0 13.2 -4.5 16 11.4 W 33 39 18 21 1009.7 - 0.0
27/05:00pm 22.0 12.8 -4.1 17 11.3 W 35 41 19 22 1009.7 - 0.0
27/04:50pm 22.0 13.0 -2.9 18 11.0 W 35 41 19 22 1009.7 - 0.0
27/04:40pm 22.1 13.6 -3.0 18 11.1 W 32 41 17 22 1009.7 - 0.0
27/04:30pm 21.9 12.6 -2.0 20 10.7 W 37 44 20 24 1009.9 - 0.0
27/04:20pm 22.0 13.1 -1.7 20 10.7 WNW 35 41 19 22 1009.8 - 0.0
27/04:10pm 21.8 13.5 -1.4 21 10.5 W 32 37 17 20 1010.0 - 0.0
27/04:00pm 21.9 13.2 -0.8 22 10.4 W 35 39 19 21 1010.2 - 0.0
27/03:50pm 21.8 13.1 -0.3 23 10.3 W 35 37 19 20 1010.2 - 0.0
27/03:40pm 21.7 13.4 -0.4 23 10.2 W 33 39 18 21 1010.3 - 0.0
27/03:30pm 21.6 12.5 -0.3 23 10.1 W 37 41 20 22 1010.5 - 0.0
27/03:20pm 21.5 11.9 -1.7 21 10.5 WNW 39 44 21 24 1010.5 - 0.0
27/03:10pm 21.5 11.9 -1.5 21 10.4 WNW 39 46 21 25 1010.5 - 0.0
27/03:00pm 21.1 12.0 -0.9 23 10.0 W 37 44 20 24 1010.8 - 0.0
27/02:50pm 21.1 11.9 -1.5 22 10.2 WNW 37 48 20 26 1010.7 - 0.0
27/02:40pm 21.6 13.4 -0.9 22 10.3 WNW 32 33 17 18 1011.1 - 0.0
27/02:30pm 21.1 12.7 -1.1 22 10.1 WNW 33 39 18 21 1011.2 - 0.0
27/02:20pm 21.4 13.8 -1.9 21 10.4 W 28 30 15 16 1011.4 - 0.0
27/02:10pm 20.9 13.4 -1.5 22 10.1 WNW 28 37 15 20 1011.5 - 0.0
27/02:00pm 20.9 13.1 -0.5 24 9.8 WNW 30 35 16 19 1011.3 - 0.0
27/01:50pm 21.1 14.6 0.6 25 9.6 WNW 24 28 13 15 1011.6 - 0.0
27/01:40pm 20.8 13.0 -0.8 23 9.8 WNW 30 35 16 19 1011.8 - 0.0
27/01:30pm 20.6 12.4 -0.9 23 9.8 W 32 39 17 21 1011.9 - 0.0
27/01:20pm 20.5 14.2 1.4 28 9.1 WNW 24 28 13 15 1011.8 - 0.0
27/01:10pm 20.0 12.4 0.8 27 9.0 W 30 33 16 18 1012.1 - 0.0
27/01:00pm 20.1 13.8 1.3 28 8.9 WNW 24 32 13 17 1012.3 - 0.0
27/12:50pm 19.5 13.6 1.7 30 8.4 WNW 22 28 12 15 1012.6 - 0.0
27/12:40pm 19.4 12.4 1.7 30 8.4 WNW 28 37 15 20 1012.5 - 0.0
27/12:30pm 19.7 13.6 0.4 27 8.9 NW 22 26 12 14 1012.7 - 0.0
27/12:20pm 19.2 13.5 0.6 28 8.6 WNW 20 24 11 13 1012.9 - 0.0
27/12:10pm 18.7 12.7 1.2 31 8.2 WNW 22 30 12 16 1012.8 - 0.0
27/12:00pm 18.4 11.9 0.4 29 8.2 WNW 24 28 13 15 1013.1 - 0.0
27/11:50am 18.4 12.5 1.5 32 7.9 NW 22 28 12 15 1013.0 - 0.0
27/11:40am 18.0 11.8 2.0 34 7.5 NW 24 26 13 14 1013.1 - 0.0
27/11:30am 17.3 11.4 1.9 35 7.2 NW 22 26 12 14 1013.1 - 0.0
27/11:20am 17.1 11.5 3.4 40 6.6 NW 22 26 12 14 1013.3 - 0.0
27/11:10am 16.8 11.9 4.0 42 6.2 NW 19 22 10 12 1013.4 - 0.0
27/11:00am 16.4 12.7 7.8 56 4.5 NNW 17 20 9 11 1013.4 - 0.0
27/10:50am 16.4 13.5 6.5 52 5.0 NW 11 17 6 9 1013.5 - 0.0
27/10:40am 16.1 12.9 3.1 41 6.2 NW 9 13 5 7 1013.5 - 0.0
27/10:30am 15.8 12.6 6.7 54 4.6 NW 13 15 7 8 1013.6 - 0.0
27/10:20am 16.2 14.1 5.9 50 5.2 W 6 11 3 6 1013.6 - 0.0
27/10:10am 15.7 13.9 7.0 56 4.5 NW 6 9 3 5 1013.7 - 0.0
27/10:00am 15.7 14.1 8.7 63 3.7 NW 7 9 4 5 1013.8 - 0.0
27/09:50am 16.8 15.7 9.8 63 3.8 E 6 7 3 4 1013.8 - 0.0
27/09:40am 16.4 15.5 9.4 63 3.8 ENE 4 6 2 3 1013.9 - 0.0
27/09:30am 15.6 14.3 9.9 69 3.1 SE 7 9 4 5 1013.9 - 0.0
27/09:20am 14.6 13.7 10.7 77 2.1 SSE 6 9 3 5 1013.9 - 0.0
27/09:10am 14.2 13.1 10.6 79 2.0 SE 7 9 4 5 1013.8 - 0.0
27/09:00am 13.9 12.9 10.9 82 1.6 SE 7 11 4 6 1013.9 - 0.0
27/08:50am 13.6 12.2 10.9 84 1.5 SE 9 9 5 5 1013.7 - 0.0
27/08:40am 13.6 12.2 10.9 84 1.5 SE 9 9 5 5 1013.7 - 0.0
27/08:30am 13.4 12.6 10.9 85 1.4 SE 6 9 3 5 1013.7 - 0.0
27/08:20am 13.1 12.0 10.8 86 1.3 SSE 7 9 4 5 1013.6 - 0.0
27/08:10am 12.8 11.7 10.6 86 1.2 S 7 9 4 5 1013.6 - 0.0
27/08:00am 12.4 10.9 10.4 88 1.1 S 9 9 5 5 1013.4 - 0.0
27/07:50am 12.1 10.5 10.2 88 1.0 S 9 11 5 6 1013.4 - 0.0
27/07:40am 11.7 9.6 9.9 89 1.0 S 11 11 6 6 1013.3 - 0.0
27/07:30am 11.6 9.5 9.8 89 1.0 S 11 11 6 6 1013.3 - 0.0
27/07:20am 11.5 9.4 9.7 89 0.9 SSE 11 11 6 6 1013.2 - 0.0
27/07:10am 11.5 9.0 9.7 89 0.9 S 13 13 7 7 1013.1 - 0.0
27/07:00am 11.5 9.0 9.6 88 1.0 S 13 13 7 7 1013.1 - 0.0
27/06:50am 11.5 8.9 9.5 87 1.1 S 13 13 7 7 1013.0 - 0.0
27/06:40am 11.4 8.7 9.1 86 1.2 S 13 15 7 8 1012.9 - 0.0
27/06:30am 11.3 8.6 9.0 86 1.2 S 13 13 7 7 1012.8 - 0.0
27/06:20am 11.5 8.8 9.0 85 1.3 SSE 13 13 7 7 1012.7 - 0.0
27/06:10am 11.5 9.2 8.9 84 1.3 SSE 11 11 6 6 1012.7 - 0.0
27/06:00am 11.7 9.0 8.9 83 1.5 SSE 13 15 7 8 1012.7 - 0.0
27/05:50am 11.7 9.1 9.2 85 1.3 SSE 13 13 7 7 1012.6 - 0.0
27/05:40am 11.7 9.0 9.1 84 1.4 SE 13 15 7 8 1012.6 - 0.0
27/05:30am 11.6 8.9 9.1 85 1.3 SE 13 15 7 8 1012.4 - 0.0
27/05:20am 11.9 8.8 8.7 81 1.7 SSE 15 15 8 8 1012.3 - 0.0
27/05:10am 11.9 9.2 8.9 82 1.6 SSE 13 15 7 8 1012.3 - 0.0
27/05:00am 12.0 8.9 8.8 81 1.7 SSE 15 15 8 8 1012.3 - 0.0
27/04:50am 12.3 9.3 9.2 81 1.6 SE 15 17 8 9 1012.3 - 0.0
27/04:40am 12.4 9.4 9.2 81 1.7 SSE 15 17 8 9 1012.2 - 0.0
27/04:30am 12.5 9.1 9.3 81 1.7 SSE 17 17 9 9 1012.2 - 0.0
27/04:20am 12.5 9.5 9.1 80 1.8 S 15 17 8 9 1012.1 - 0.0
27/04:10am 12.5 9.1 9.1 80 1.8 S 17 19 9 10 1012.2 - 0.0
27/04:00am 12.5 8.6 8.6 77 2.0 S 19 19 10 10 1012.2 - 0.0
27/03:50am 12.5 8.6 8.5 76 2.1 S 19 19 10 10 1012.2 - 0.0
27/03:40am 12.6 9.0 8.4 75 2.2 S 17 19 9 10 1012.2 - 0.0
27/03:30am 12.6 9.0 8.4 75 2.2 S 17 19 9 10 1012.2 - 0.0
27/03:20am 12.7 9.1 8.4 75 2.2 S 17 19 9 10 1012.0 - 0.0
27/03:10am 12.8 8.8 8.3 74 2.3 S 19 20 10 11 1012.0 - 0.0
27/03:00am 12.8 8.8 8.3 74 2.3 S 19 20 10 11 1012.0 - 0.0
27/02:50am 12.8 8.8 8.3 74 2.3 S 19 19 10 10 1012.0 - 0.0
27/02:40am 12.9 9.3 8.3 73 2.4 S 17 19 9 10 1012.2 - 0.0
27/02:30am 13.1 9.5 8.2 72 2.5 SSE 17 17 9 9 1012.2 - 0.0
27/02:20am 13.3 9.6 8.1 71 2.7 S 17 17 9 9 1012.3 - 0.0
27/02:10am 13.5 9.8 8.1 70 2.8 SSE 17 19 9 10 1012.4 - 0.0
27/02:00am 13.6 10.0 8.3 70 2.8 S 17 17 9 9 1012.4 - 0.0
27/01:50am 13.8 10.2 8.2 69 2.9 S 17 19 9 10 1012.5 - 0.0
27/01:40am 14.0 10.4 8.3 68 3.0 S 17 19 9 10 1012.5 - 0.0
27/01:30am 14.2 10.5 8.0 66 3.2 S 17 19 9 10 1012.5 - 0.0
27/01:20am 14.2 10.1 8.0 66 3.2 S 19 19 10 10 1012.4 - 0.0
27/01:10am 14.1 10.3 7.6 65 3.3 SSE 17 17 9 9 1012.4 - 0.0
27/01:00am 14.4 11.7 7.5 63 3.5 SSE 11 11 6 6 1012.3 - 0.0
27/12:50am 14.6 12.3 7.5 62 3.7 SSE 9 11 5 6 1012.4 - 0.0
27/12:40am 14.9 12.7 7.7 62 3.7 SE 9 9 5 5 1012.4 - 0.0
27/12:30am 15.4 14.0 7.4 59 4.1 SSE 4 9 2 5 1012.3 - 0.0
27/12:20am 15.8 12.6 5.3 49 5.2 SW 11 13 6 7 1012.4 - 0.0
27/12:10am 16.0 12.5 5.3 49 5.3 SW 13 17 7 9 1012.2 - 0.0
27/12:00am 16.0 11.7 5.1 48 5.4 WSW 17 17 9 9 1012.2 - 0.0
 
Date/Time
EDT
Temp
°C
App
Temp
°C
Dew
Point
°C
Rel
Hum
%
Delta-T
°C
Wind Press
QNH
hPa
Press
MSL
hPa
Rain since
9am
mm
Dir  Spd
km/h
Gust
km/h
Spd
kts
Gust
kts
26/11:50pm 16.3 12.4 5.4 48 5.4 SW 15 19 8 10 1012.2 - 0.0
26/11:40pm 16.3 12.4 5.4 48 5.4 SW 15 19 8 10 1012.2 - 0.0
26/11:30pm 16.3 11.5 5.6 49 5.4 W 20 22 11 12 1012.0 - 0.0
26/11:20pm 16.5 11.7 5.4 48 5.5 WSW 20 22 11 12 1012.0 - 0.0
26/11:10pm 16.8 11.2 5.6 47 5.6 WSW 24 28 13 15 1012.0 - 0.0
26/11:00pm 16.8 11.6 5.4 47 5.7 WSW 22 26 12 14 1011.9 - 0.0
26/10:50pm 17.0 12.4 5.6 47 5.7 WSW 19 26 10 14 1011.8 - 0.0
26/10:40pm 17.1 12.0 6.0 48 5.6 W 22 28 12 15 1011.9 - 0.0
26/10:30pm 17.4 11.9 5.9 46 5.8 W 24 30 13 16 1011.6 - 0.0
26/10:20pm 17.7 13.2 6.1 46 5.9 W 19 24 10 13 1011.9 - 0.0
26/10:10pm 17.9 11.7 6.2 46 6.0 W 28 33 15 18 1011.6 - 0.0
26/10:00pm 18.2 12.4 6.3 45 6.1 W 26 30 14 16 1011.6 - 0.0
26/09:50pm 18.3 13.3 6.5 46 6.1 W 22 24 12 13 1011.5 - 0.0
26/09:40pm 18.6 13.3 6.7 46 6.2 W 24 32 13 17 1011.4 - 0.0
26/09:30pm 18.8 13.5 6.9 46 6.2 W 24 30 13 16 1011.2 - 0.0
26/09:20pm 18.9 14.4 7.0 46 6.2 WNW 20 24 11 13 1011.3 - 0.0
26/09:10pm 19.0 14.5 7.1 46 6.2 W 20 26 11 14 1011.1 - 0.0
26/09:00pm 19.2 13.6 7.1 45 6.4 W 26 33 14 18 1010.9 - 0.0
26/08:50pm 19.4 13.0 7.0 44 6.5 W 30 35 16 19 1010.5 - 0.0
26/08:40pm 19.6 12.8 6.9 43 6.7 W 32 35 17 19 1010.6 - 0.0
26/08:30pm 19.8 12.1 7.1 43 6.7 W 37 41 20 22 1010.3 - 0.0
26/08:20pm 20.0 12.3 7.1 43 6.8 W 37 43 20 23 1010.0 - 0.0
26/08:10pm 20.2 12.9 7.1 42 6.9 W 35 39 19 21 1010.0 - 0.0
26/08:00pm 20.4 13.1 7.2 42 7.0 W 35 39 19 21 1009.9 - 0.0
26/07:50pm 20.7 13.0 7.3 42 7.1 W 37 39 20 21 1009.6 - 0.0
26/07:40pm 21.0 13.3 7.2 41 7.3 W 37 39 20 21 1009.5 - 0.0
26/07:30pm 21.5 15.1 7.1 39 7.7 W 30 37 16 20 1009.3 - 0.0
26/07:20pm 21.8 15.0 6.9 38 7.9 W 32 35 17 19 1009.3 - 0.0
26/07:10pm 22.0 13.8 6.7 37 8.1 W 39 41 21 22 1009.4 - 0.0
26/07:00pm 22.5 15.4 6.5 35 8.5 W 33 41 18 22 1009.2 - 0.0
26/06:50pm 22.8 15.7 6.3 34 8.7 W 33 41 18 22 1009.2 - 0.0
26/06:40pm 23.4 17.9 6.0 32 9.2 W 24 28 13 15 1009.0 - 0.0
26/06:30pm 23.6 17.1 4.5 29 9.8 W 28 35 15 19 1008.9 - 0.0
26/06:20pm 23.5 14.0 3.8 27 10.0 WNW 43 52 23 28 1008.6 - 0.0
26/06:10pm 23.4 12.9 3.6 27 10.0 WNW 48 54 26 29 1008.1 - 0.0
26/06:00pm 23.7 12.6 2.7 25 10.5 WNW 50 54 27 29 1007.9 - 0.0
26/05:50pm 24.1 12.5 1.4 22 11.1 WNW 52 56 28 30 1007.6 - 0.0
26/05:40pm 24.2 13.3 1.1 22 11.2 WNW 48 57 26 31 1007.7 - 0.0
26/05:30pm 24.5 15.0 2.0 23 11.1 W 41 50 22 27 1007.8 - 0.0
26/05:20pm 24.5 15.5 2.2 23 11.1 W 39 44 21 24 1007.7 - 0.0
26/05:10pm 25.1 16.3 1.2 21 11.7 W 37 41 20 22 1007.8 - 0.0
26/05:00pm 25.0 15.7 0.7 20 11.8 W 39 46 21 25 1007.8 - 0.0
26/04:50pm 24.6 13.9 0.4 20 11.6 W 46 59 25 32 1007.7 - 0.0
26/04:40pm 24.9 14.7 -0.3 19 12.0 W 43 50 23 27 1007.9 - 0.0
26/04:30pm 25.0 13.4 -0.7 18 12.1 W 50 57 27 31 1007.9 - 0.0
26/04:20pm 25.3 14.9 -1.7 16 12.5 W 43 54 23 29 1007.9 - 0.0
26/04:10pm 25.1 14.1 0.6 20 11.9 W 48 57 26 31 1007.8 - 0.0
26/04:00pm 25.3 13.1 0.4 19 12.0 WNW 54 63 29 34 1007.9 - 0.0
26/03:50pm 25.8 15.9 1.5 20 12.0 W 43 59 23 32 1007.4 - 0.0
26/03:40pm 25.8 17.6 6.7 29 10.3 W 39 48 21 26 1007.8 - 0.0
26/03:30pm 24.9 14.0 7.2 32 9.6 W 54 61 29 33 1007.6 - 0.0
26/03:20pm 24.8 12.1 6.8 31 9.7 WNW 63 70 34 38 1007.3 - 0.0
26/03:10pm 25.0 13.5 7.0 31 9.8 W 57 69 31 37 1007.2 - 0.0
26/03:00pm 25.6 16.4 8.2 33 9.7 W 46 59 25 32 1007.6 - 0.0
26/02:50pm 24.8 11.0 7.2 32 9.6 WNW 69 78 37 42 1007.5 - 0.0
26/02:40pm 25.3 12.9 6.7 30 10.0 W 61 72 33 39 1007.4 - 0.0
26/02:30pm 25.2 11.6 6.1 29 10.2 W 67 78 36 42 1007.2 - 0.0
26/02:20pm 25.0 11.2 6.9 31 9.8 WNW 69 76 37 41 1007.0 - 0.0
26/02:10pm 24.9 10.1 7.0 31 9.7 WNW 74 82 40 44 1007.1 - 0.0
26/02:00pm 25.0 10.9 6.7 31 9.9 WNW 70 76 38 41 1006.9 - 0.0
26/01:50pm 25.2 12.6 7.4 32 9.7 WNW 63 72 34 39 1007.3 - 0.0
26/01:40pm 24.9 11.5 5.4 28 10.3 W 65 72 35 39 1007.3 - 0.0
26/01:30pm 24.9 12.9 5.0 27 10.4 W 57 74 31 40 1007.5 - 0.0
26/01:20pm 24.9 13.4 6.9 31 9.7 W 57 65 31 35 1007.4 - 0.0
26/01:10pm 24.5 11.1 7.2 33 9.4 WNW 67 72 36 39 1007.7 - 0.0
26/01:00pm 24.1 9.5 7.5 34 9.0 W 74 85 40 46 1007.3 - 0.0
26/12:50pm 24.3 10.7 7.7 34 9.1 W 69 80 37 43 1007.3 - 0.0
26/12:40pm 24.1 12.7 10.4 42 7.8 W 61 72 33 39 1007.9 - 0.0
26/12:30pm 23.8 13.9 12.4 48 6.7 WNW 56 70 30 38 1007.9 - 0.0
26/12:20pm 23.9 16.0 12.7 49 6.7 WNW 46 54 25 29 1008.0 - 0.0
26/12:10pm 23.6 16.1 13.8 54 5.9 WNW 46 59 25 32 1008.4 - 0.0
26/12:00pm 22.6 14.1 14.4 60 5.0 WNW 52 59 28 32 1008.7 - 0.0
26/11:50am 22.2 15.6 14.8 63 4.5 W 43 52 23 28 1008.8 - 0.0
26/11:40am 22.6 16.4 16.0 66 4.1 WNW 43 52 23 28 1009.2 - 0.0
26/11:30am 22.4 15.9 15.5 65 4.3 WNW 44 52 24 28 1009.3 - 0.0
26/11:20am 21.9 15.5 15.9 68 3.7 WNW 44 56 24 30 1009.3 - 0.0
26/11:10am 21.4 14.3 16.0 71 3.4 WNW 48 54 26 29 1009.5 - 0.0
26/11:00am 21.1 13.7 16.3 74 3.0 WNW 50 56 27 30 1009.8 - 0.0
26/10:50am 20.8 13.1 16.5 76 2.7 WNW 52 61 28 33 1009.7 - 0.0
26/10:40am 20.3 14.2 16.6 79 2.3 WNW 44 52 24 28 1009.6 - 0.0
26/10:30am 20.2 14.6 16.6 80 2.2 WNW 41 46 22 25 1009.8 - 0.0
26/10:20am 19.9 15.1 16.5 81 2.1 WNW 37 43 20 23 1010.1 - 0.0
26/10:10am 19.5 15.1 16.6 83 1.8 WNW 35 39 19 21 1010.3 - 0.0
26/10:00am 19.3 14.9 16.6 84 1.7 WNW 35 39 19 21 1010.3 - 0.4
26/09:50am 19.1 15.3 16.7 86 1.5 WNW 32 39 17 21 1010.5 - 0.4
26/09:40am 18.8 15.1 16.9 89 1.2 WNW 32 35 17 19 1010.6 - 0.4
26/09:30am 18.7 14.4 16.8 89 1.2 WNW 35 39 19 21 1010.4 - 0.4
26/09:20am 18.8 14.5 16.8 88 1.2 WNW 35 41 19 22 1010.5 - 0.4
26/09:10am 19.4 15.3 16.4 83 1.9 W 33 41 18 22 1011.0 - 0.0
26/09:00am 19.4 15.2 16.3 82 1.9 W 33 39 18 21 1011.0 - 0.0
26/08:50am 19.7 15.1 16.0 79 2.3 WNW 35 39 19 21 1010.9 - 0.0
26/08:40am 19.7 16.0 15.9 79 2.3 WNW 30 39 16 21 1011.0 - 0.0
26/08:30am 19.8 15.7 16.0 79 2.3 WNW 32 37 17 20 1011.1 - 0.0
26/08:20am 19.9 16.7 16.2 79 2.3 WNW 28 33 15 18 1011.2 - 0.0
26/08:10am 19.8 16.2 16.2 80 2.2 WNW 30 35 16 19 1011.0 - 0.0
26/08:00am 19.5 17.1 16.4 82 1.9 NW 24 30 13 16 1011.1 - 0.0
26/07:50am 19.3 15.7 16.3 83 1.9 NW 30 32 16 17 1011.1 - 0.0
26/07:40am 19.2 15.2 16.1 82 1.9 NW 32 33 17 18 1010.9 - 0.0
26/07:30am 19.0 15.6 15.7 81 2.0 NW 28 33 15 18 1010.9 - 0.0
26/07:20am 18.9 16.5 15.4 80 2.1 NW 22 26 12 14 1011.0 - 0.0
26/07:10am 19.1 16.0 15.5 79 2.2 NW 26 37 14 20 1010.9 - 0.0
26/07:00am 19.3 15.0 15.3 77 2.4 NW 32 35 17 19 1010.7 - 0.0
26/06:50am 19.2 14.8 15.2 77 2.4 NW 32 35 17 19 1010.8 - 0.0
26/06:40am 19.3 15.7 14.2 72 3.0 WNW 26 33 14 18 1010.9 - 0.0
26/06:30am 19.4 16.0 13.7 69 3.4 NW 24 26 13 14 1011.0 - 0.0
26/06:20am 19.4 16.4 13.6 69 3.4 NW 22 24 12 13 1010.9 - 0.0
26/06:10am 19.5 16.0 13.5 68 3.5 NW 24 26 13 14 1011.1 - 0.0
26/06:00am 19.5 16.0 13.3 67 3.7 NW 24 24 13 13 1011.1 - 0.0
26/05:50am 19.4 15.8 13.2 67 3.6 NW 24 26 13 14 1011.1 - 0.0
26/05:40am 19.5 15.9 13.1 66 3.8 WNW 24 26 13 14 1011.2 - 0.0
26/05:30am 19.5 15.9 12.9 65 3.9 NW 24 24 13 13 1011.2 - 0.0
26/05:20am 19.5 16.6 12.8 65 3.9 NW 20 22 11 12 1011.3 - 0.0
26/05:10am 19.6 16.7 12.8 65 4.0 NW 20 24 11 13 1011.3 - 0.0
26/05:00am 19.8 16.4 12.6 63 4.2 NW 22 26 12 14 1011.1 - 0.0
26/04:50am 20.0 17.0 12.7 63 4.3 NW 20 24 11 13 1011.3 - 0.0
26/04:40am 20.3 16.2 12.6 61 4.5 NW 26 28 14 15 1011.2 - 0.0
26/04:30am 20.2 16.0 12.4 61 4.5 NW 26 28 14 15 1011.1 - 0.0
26/04:20am 20.3 16.2 12.6 61 4.5 NW 26 26 14 14 1011.1 - 0.0
26/04:10am 20.4 16.6 12.4 60 4.7 NW 24 28 13 15 1011.1 - 0.0
26/04:00am 20.2 17.2 12.4 61 4.5 NW 20 20 11 11 1011.2 - 0.0
26/03:50am 20.3 17.4 12.4 60 4.6 NW 19 19 10 10 1011.5 - 0.0
26/03:40am 20.4 17.5 12.4 60 4.7 NW 19 20 10 11 1011.6 - 0.0
26/03:30am 20.4 17.5 12.4 60 4.7 NW 19 22 10 12 1011.6 - 0.0
26/03:20am 20.6 17.5 12.3 59 4.8 NW 20 22 11 12 1011.6 - 0.0
26/03:10am 20.6 17.5 12.3 59 4.8 NW 20 24 11 13 1011.7 - 0.0
26/03:00am 20.7 17.6 12.2 58 4.9 NW 20 22 11 12 1011.8 - 0.0
26/02:50am 21.1 18.0 12.3 57 5.1 NW 20 22 11 12 1011.8 - 0.0
26/02:40am 21.3 18.2 12.2 56 5.3 NW 20 22 11 12 1012.0 - 0.0
26/02:30am 21.3 18.4 12.2 56 5.3 NW 19 20 10 11 1012.0 - 0.0
26/02:20am 21.4 18.5 12.2 55 5.4 NW 19 20 10 11 1012.1 - 0.0

Other formats

Comma delimited format used in spreadsheet applications
http://www.bom.gov.au/fwo/IDN60801/IDN60801.99763.axf

JavaScript Object Notation format (JSON) in row-major order
http://www.bom.gov.au/fwo/IDN60801/IDN60801.99763.json

Data quality

Most of these data are generated automatically and are frequently updated. Quality checks on data are not normally performed. It is possible for incorrect values to appear. Refer to information at About Latest Weather Observations and please check the disclaimer before using these data.